createdAt,value
2019-06-26T00:01:44.084Z,9.77
2019-06-26T00:04:49.329Z,9.80
2019-06-26T00:07:55.588Z,9.33
2019-06-26T00:11:02.423Z,10.00
2019-06-26T00:14:07.726Z,10.00
2019-06-26T00:17:12.902Z,9.67
2019-06-26T00:20:18.580Z,9.63
2019-06-26T00:23:23.739Z,9.60
2019-06-26T00:26:28.984Z,9.37
2019-06-26T00:29:34.214Z,9.77
2019-06-26T00:32:39.463Z,9.40
2019-06-26T00:35:50.943Z,9.37
2019-06-26T00:38:56.117Z,9.77
2019-06-26T00:42:01.398Z,9.40
2019-06-26T00:45:08.411Z,10.23
2019-06-26T00:48:15.445Z,9.70
2019-06-26T00:51:20.647Z,9.67
2019-06-26T00:54:25.863Z,10.00
2019-06-26T00:57:31.137Z,9.90
2019-06-26T01:00:41.992Z,10.07
2019-06-26T01:03:49.675Z,10.27
2019-06-26T01:06:54.893Z,10.57
2019-06-26T01:10:00.060Z,10.43
2019-06-26T01:13:05.940Z,9.93
2019-06-26T01:16:12.443Z,10.70
2019-06-26T01:19:17.993Z,11.07
2019-06-26T01:22:23.199Z,10.87
2019-06-26T01:25:30.280Z,12.00
2019-06-26T01:28:37.682Z,10.60
2019-06-26T01:31:42.853Z,11.00
2019-06-26T01:34:48.143Z,11.23
2019-06-26T01:37:53.340Z,11.53
2019-06-26T01:40:58.516Z,10.53
2019-06-26T01:44:14.239Z,11.17
2019-06-26T01:47:10.898Z,11.43
2019-06-26T01:50:16.201Z,11.07
2019-06-26T01:53:22.805Z,11.57
2019-06-26T01:56:28.026Z,11.50
2019-06-26T01:59:34.012Z,11.23
2019-06-26T02:02:39.186Z,10.20
2019-06-26T02:05:44.326Z,10.80
2019-06-26T02:08:49.505Z,11.20
2019-06-26T02:11:54.651Z,12.33
2019-06-26T02:14:59.902Z,12.07
2019-06-26T02:18:06.838Z,11.43
2019-06-26T02:21:12.058Z,11.97
2019-06-26T02:24:17.257Z,12.27
2019-06-26T02:27:22.573Z,12.60
2019-06-26T02:30:27.782Z,12.30
2019-06-26T02:33:33.029Z,11.33
2019-06-26T02:36:38.289Z,12.20
2019-06-26T02:39:43.598Z,12.20
2019-06-26T02:42:48.764Z,12.10
2019-06-26T02:45:53.940Z,11.73
2019-06-26T02:48:59.094Z,12.33
2019-06-26T02:52:04.249Z,12.97
2019-06-26T02:55:09.387Z,11.57
2019-06-26T02:58:14.643Z,12.30
2019-06-26T03:01:19.818Z,12.00
2019-06-26T03:04:25.057Z,13.33
2019-06-26T03:07:30.263Z,12.07
2019-06-26T03:10:35.433Z,11.97
2019-06-26T03:13:40.626Z,12.50
2019-06-26T03:16:45.779Z,12.97
2019-06-26T03:19:50.968Z,12.50
2019-06-26T03:22:56.149Z,12.57
2019-06-26T03:26:01.326Z,12.10
2019-06-26T03:29:06.487Z,11.90
2019-06-26T03:32:11.708Z,12.27
2019-06-26T03:35:17.032Z,13.10
2019-06-26T03:38:22.259Z,12.00
2019-06-26T03:41:27.459Z,12.20
2019-06-26T03:44:32.761Z,12.20
2019-06-26T03:47:37.939Z,12.17
2019-06-26T03:50:43.156Z,12.30
2019-06-26T03:53:48.419Z,13.13
2019-06-26T03:56:53.637Z,13.83
2019-06-26T03:59:58.863Z,12.87
2019-06-26T04:03:04.108Z,14.53
2019-06-26T04:06:09.377Z,12.70
2019-06-26T04:09:14.608Z,13.57
2019-06-26T04:12:19.794Z,13.60
2019-06-26T04:15:37.588Z,13.10
2019-06-26T04:18:31.837Z,12.40
2019-06-26T04:21:37.008Z,12.53
2019-06-26T04:24:42.204Z,11.80
2019-06-26T04:27:47.487Z,13.03
2019-06-26T04:30:53.532Z,13.00
2019-06-26T04:33:58.699Z,13.10
2019-06-26T04:37:03.902Z,12.27
2019-06-26T04:40:09.254Z,12.10
2019-06-26T04:43:14.459Z,13.20
2019-06-26T04:46:19.927Z,13.97
2019-06-26T04:49:26.108Z,13.90
2019-06-26T04:52:31.415Z,12.50
2019-06-26T04:55:36.662Z,12.77
2019-06-26T04:58:41.935Z,13.47
2019-06-26T05:01:49.139Z,13.33
2019-06-26T05:04:54.303Z,14.13
2019-06-26T05:07:59.467Z,13.30
2019-06-26T05:11:04.710Z,14.87
2019-06-26T05:14:10.024Z,13.63
2019-06-26T05:17:15.299Z,15.17
2019-06-26T05:20:20.666Z,15.83
2019-06-26T05:23:25.912Z,14.60
2019-06-26T05:26:31.115Z,12.77
2019-06-26T05:29:36.267Z,14.23
2019-06-26T05:32:41.452Z,13.63
2019-06-26T05:35:46.928Z,13.30
2019-06-26T05:38:52.188Z,13.73
2019-06-26T05:41:57.438Z,13.23
2019-06-26T05:45:02.960Z,13.67
2019-06-26T05:48:08.213Z,13.40
2019-06-26T05:51:13.395Z,12.93
2019-06-26T05:54:18.547Z,14.50
2019-06-26T05:57:23.782Z,14.10
2019-06-26T06:00:28.928Z,15.00
2019-06-26T06:03:34.177Z,11.90
2019-06-26T06:06:42.154Z,14.03
2019-06-26T06:09:46.250Z,13.73
2019-06-26T06:12:51.500Z,13.47
2019-06-26T06:15:56.755Z,15.60
2019-06-26T06:19:01.920Z,14.97
2019-06-26T06:22:07.165Z,14.90
2019-06-26T06:25:12.760Z,15.60
2019-06-26T06:28:18.061Z,14.53
2019-06-26T06:31:23.223Z,14.60
2019-06-26T06:34:28.479Z,13.63
2019-06-26T06:37:34.676Z,13.90
2019-06-26T06:40:39.916Z,14.80
2019-06-26T06:43:46.188Z,13.57
2019-06-26T06:47:03.275Z,14.50
2019-06-26T06:49:58.155Z,13.83
2019-06-26T06:53:03.354Z,14.87
2019-06-26T06:56:08.520Z,14.53
2019-06-26T06:59:13.693Z,14.70
2019-06-26T07:02:18.861Z,16.47
2019-06-26T07:05:24.058Z,15.00
2019-06-26T07:08:29.263Z,14.30
2019-06-26T07:11:34.401Z,14.90
2019-06-26T07:14:39.581Z,16.40
2019-06-26T07:17:44.920Z,16.10
2019-06-26T07:20:50.164Z,16.07
2019-06-26T07:23:55.380Z,14.23
2019-06-26T07:27:00.677Z,17.07
2019-06-26T07:30:06.310Z,16.40
2019-06-26T07:33:11.535Z,16.40
2019-06-26T07:36:16.758Z,15.93
2019-06-26T07:39:23.043Z,14.90
2019-06-26T07:42:28.245Z,14.13
2019-06-26T07:45:33.440Z,14.13
2019-06-26T07:48:40.165Z,15.80
2019-06-26T07:51:47.360Z,15.07
2019-06-26T07:54:53.611Z,13.70
2019-06-26T07:57:59.007Z,13.03
2019-06-26T08:01:04.236Z,13.67
2019-06-26T08:04:09.398Z,14.40
2019-06-26T08:07:14.813Z,14.20
2019-06-26T08:10:20.281Z,13.97
2019-06-26T08:13:25.465Z,13.03
2019-06-26T08:16:34.444Z,13.90
2019-06-26T08:19:37.516Z,12.60
2019-06-26T08:22:43.051Z,12.70
2019-06-26T08:25:48.359Z,12.10
2019-06-26T08:28:53.570Z,13.40
2019-06-26T08:31:58.746Z,14.20
2019-06-26T08:35:03.993Z,12.07
2019-06-26T08:38:12.712Z,14.70
2019-06-26T08:41:16.029Z,14.10
2019-06-26T08:44:21.182Z,13.13
2019-06-26T08:47:26.290Z,13.30
2019-06-26T08:50:31.460Z,13.17
2019-06-26T08:53:36.621Z,13.70
2019-06-26T08:56:41.796Z,12.20
2019-06-26T08:59:46.940Z,12.53
2019-06-26T09:02:52.096Z,11.80
2019-06-26T09:05:57.238Z,11.93
2019-06-26T09:09:02.461Z,11.13
2019-06-26T09:12:08.589Z,11.53
2019-06-26T09:15:13.761Z,11.10
2019-06-26T09:18:34.273Z,11.77
2019-06-26T09:21:30.916Z,10.97
2019-06-26T09:24:33.737Z,11.37
2019-06-26T09:27:38.891Z,11.53
2019-06-26T09:30:44.087Z,11.60
2019-06-26T09:33:49.232Z,10.50
2019-06-26T09:36:54.393Z,10.27
2019-06-26T09:39:59.565Z,10.70
2019-06-26T09:43:04.807Z,11.07
2019-06-26T09:46:09.969Z,11.10
2019-06-26T09:49:15.168Z,10.77
2019-06-26T09:52:20.410Z,10.10
2019-06-26T09:55:25.680Z,11.10
2019-06-26T09:58:30.944Z,9.83
2019-06-26T10:01:36.146Z,9.60
2019-06-26T10:04:41.371Z,10.10
2019-06-26T10:07:46.546Z,10.43
2019-06-26T10:10:51.782Z,10.63
2019-06-26T10:13:56.920Z,10.80
2019-06-26T10:17:03.581Z,11.33
2019-06-26T10:20:09.384Z,10.57
2019-06-26T10:23:14.700Z,10.87
2019-06-26T10:26:19.864Z,10.97
2019-06-26T10:29:26.680Z,11.67
2019-06-26T10:32:33.974Z,11.00
2019-06-26T10:35:39.122Z,11.97
2019-06-26T10:38:44.359Z,13.27
2019-06-26T10:41:49.686Z,11.97
2019-06-26T10:44:54.880Z,11.13
2019-06-26T10:48:00.004Z,12.10
2019-06-26T10:51:05.180Z,11.87
2019-06-26T10:54:10.410Z,12.70
2019-06-26T10:57:16.651Z,12.43
2019-06-26T11:00:22.088Z,11.57
2019-06-26T11:03:27.266Z,12.10
2019-06-26T11:06:32.408Z,11.80
2019-06-26T11:09:37.595Z,11.30
2019-06-26T11:12:42.878Z,10.83
2019-06-26T11:15:48.115Z,11.20
2019-06-26T11:18:53.323Z,11.10
2019-06-26T11:21:58.665Z,11.00
2019-06-26T11:25:03.872Z,11.03
2019-06-26T11:28:09.011Z,11.07
2019-06-26T11:31:14.170Z,11.47
2019-06-26T11:34:19.413Z,11.90
2019-06-26T11:37:24.589Z,12.40
2019-06-26T11:40:29.793Z,11.90
2019-06-26T11:43:35.132Z,12.70
2019-06-26T11:46:40.319Z,11.80
2019-06-26T11:49:59.362Z,12.33
2019-06-26T11:52:53.702Z,12.07
2019-06-26T11:55:58.967Z,11.80
2019-06-26T11:59:04.300Z,12.27
2019-06-26T12:02:09.535Z,13.90
2019-06-26T12:05:15.716Z,14.80
2019-06-26T12:08:20.925Z,17.03
2019-06-26T12:11:26.155Z,16.00
2019-06-26T12:14:32.108Z,15.90
2019-06-26T12:17:37.386Z,16.00
2019-06-26T12:20:42.578Z,15.77
2019-06-26T12:23:47.750Z,16.83
2019-06-26T12:26:52.961Z,17.40
2019-06-26T12:29:58.132Z,18.07
2019-06-26T12:33:03.912Z,15.50
2019-06-26T12:36:09.507Z,17.50
2019-06-26T12:39:14.762Z,15.90
2019-06-26T12:42:19.960Z,14.40
2019-06-26T12:45:25.284Z,13.40
2019-06-26T12:48:30.516Z,13.20
2019-06-26T12:51:36.897Z,13.80
2019-06-26T12:54:43.884Z,12.47
2019-06-26T12:57:49.072Z,11.97
2019-06-26T13:00:54.247Z,11.67
2019-06-26T13:03:59.455Z,11.10
2019-06-26T13:07:04.700Z,10.00
2019-06-26T13:10:10.068Z,9.50
2019-06-26T13:13:15.283Z,8.90
2019-06-26T13:16:20.513Z,9.40
2019-06-26T13:19:25.742Z,8.83
2019-06-26T13:22:30.942Z,9.37
2019-06-26T13:25:36.106Z,10.30
2019-06-26T13:28:41.286Z,8.93
2019-06-26T13:31:46.413Z,8.90
2019-06-26T13:34:51.714Z,8.87
2019-06-26T13:37:56.958Z,9.00
2019-06-26T13:41:02.137Z,8.33
2019-06-26T13:44:07.301Z,8.77
2019-06-26T13:47:12.485Z,8.70
2019-06-26T13:50:18.063Z,8.10
2019-06-26T13:53:23.221Z,8.80
2019-06-26T13:56:28.426Z,9.17
2019-06-26T13:59:33.608Z,9.00
2019-06-26T14:02:38.789Z,8.10
2019-06-26T14:05:44.041Z,8.60
2019-06-26T14:08:49.242Z,8.50
2019-06-26T14:11:54.541Z,8.60
2019-06-26T14:15:00.190Z,8.40
2019-06-26T14:18:05.567Z,9.07
2019-06-26T14:21:24.572Z,9.07
2019-06-26T14:24:17.643Z,9.30
2019-06-26T14:27:22.860Z,9.53
2019-06-26T14:30:28.248Z,9.57
2019-06-26T14:33:34.531Z,9.83
2019-06-26T14:36:39.789Z,9.63
2019-06-26T14:39:46.112Z,8.70
2019-06-26T14:42:51.426Z,8.63
2019-06-26T14:45:58.269Z,8.60
2019-06-26T14:49:03.767Z,8.70
2019-06-26T14:52:14.231Z,9.33
2019-06-26T14:55:22.064Z,9.77
2019-06-26T14:58:27.909Z,9.67
2019-06-26T15:01:33.189Z,8.97
2019-06-26T15:04:38.943Z,9.60
2019-06-26T15:07:44.119Z,9.40
2019-06-26T15:10:49.326Z,10.20
2019-06-26T15:13:55.122Z,10.13
2019-06-26T15:17:03.671Z,10.00
2019-06-26T15:20:09.021Z,9.30
2019-06-26T15:23:23.426Z,9.70
2019-06-26T15:26:32.482Z,9.10
2019-06-26T15:29:37.715Z,9.50
2019-06-26T15:32:43.496Z,10.30
2019-06-26T15:35:49.713Z,9.83
2019-06-26T15:38:59.024Z,9.13
2019-06-26T15:42:05.468Z,9.80
2019-06-26T15:45:10.687Z,10.10
2019-06-26T15:48:15.970Z,8.83
2019-06-26T15:51:21.162Z,9.10
2019-06-26T15:54:26.393Z,8.93
2019-06-26T15:57:34.402Z,8.77
2019-06-26T16:00:39.769Z,9.10
2019-06-26T16:03:45.071Z,8.40
2019-06-26T16:06:50.623Z,8.97
2019-06-26T16:09:55.863Z,8.73
2019-06-26T16:13:01.057Z,9.07
2019-06-26T16:16:06.599Z,8.90
2019-06-26T16:19:17.157Z,8.73
2019-06-26T16:22:32.083Z,9.40
2019-06-26T16:25:31.158Z,9.87
2019-06-26T16:28:36.498Z,9.97
2019-06-26T16:31:42.913Z,8.73
2019-06-26T16:34:50.009Z,8.63
2019-06-26T16:37:55.344Z,8.60
2019-06-26T16:41:00.507Z,9.03
2019-06-26T16:44:06.888Z,8.80
2019-06-26T16:47:13.723Z,8.83
2019-06-26T16:50:23.868Z,7.97
2019-06-26T16:53:29.622Z,8.90
2019-06-26T16:56:34.957Z,8.37
2019-06-26T16:59:43.677Z,8.03
2019-06-26T17:02:48.939Z,8.37
2019-06-26T17:05:56.344Z,8.10
2019-06-26T17:09:01.693Z,9.20
2019-06-26T17:12:08.519Z,8.97
2019-06-26T17:15:13.978Z,9.40
2019-06-26T17:18:19.459Z,8.40
2019-06-26T17:21:25.033Z,9.00
2019-06-26T17:24:30.774Z,8.30
2019-06-26T17:27:35.973Z,7.50
2019-06-26T17:30:41.273Z,7.50
2019-06-26T17:33:46.543Z,7.60
2019-06-26T17:36:51.782Z,6.73
2019-06-26T17:39:58.084Z,7.50
2019-06-26T17:43:12.336Z,6.50
2019-06-26T17:46:13.521Z,7.00
2019-06-26T17:49:19.613Z,6.30
2019-06-26T17:52:24.879Z,6.43
2019-06-26T17:55:30.062Z,6.77
2019-06-26T17:58:35.282Z,7.40
2019-06-26T18:01:40.473Z,6.83
2019-06-26T18:04:45.739Z,6.60
2019-06-26T18:07:51.871Z,6.43
2019-06-26T18:10:57.110Z,6.30
2019-06-26T18:14:03.096Z,6.50
2019-06-26T18:17:21.622Z,6.23
2019-06-26T18:20:16.862Z,6.93
2019-06-26T18:23:37.179Z,6.30
2019-06-26T18:26:31.564Z,6.57
2019-06-26T18:29:36.750Z,5.97
2019-06-26T18:32:42.070Z,6.40
2019-06-26T18:35:47.332Z,6.03
2019-06-26T18:38:52.613Z,6.90
2019-06-26T18:41:57.838Z,6.90
2019-06-26T18:45:03.032Z,6.87
2019-06-26T18:48:08.524Z,6.67
2019-06-26T18:51:13.845Z,6.70
2019-06-26T18:54:19.188Z,7.47
2019-06-26T18:57:25.588Z,7.47
2019-06-26T19:00:30.784Z,7.40
2019-06-26T19:03:36.029Z,7.40
2019-06-26T19:06:41.352Z,8.13
2019-06-26T19:09:47.018Z,7.60
2019-06-26T19:12:52.256Z,8.80
2019-06-26T19:15:59.654Z,8.30
2019-06-26T19:19:04.890Z,8.73
2019-06-26T19:22:10.110Z,9.80
2019-06-26T19:25:15.331Z,8.80
2019-06-26T19:28:23.134Z,9.20
2019-06-26T19:31:27.598Z,8.23
2019-06-26T19:34:32.820Z,9.50
2019-06-26T19:37:38.119Z,9.50
2019-06-26T19:40:44.808Z,8.93
2019-06-26T19:43:50.062Z,9.57
2019-06-26T19:46:55.259Z,9.80
2019-06-26T19:50:00.536Z,8.87
2019-06-26T19:53:05.811Z,9.37
2019-06-26T19:56:12.474Z,9.17
2019-06-26T19:59:17.655Z,8.50
2019-06-26T20:02:22.850Z,7.97
2019-06-26T20:05:28.142Z,8.57
2019-06-26T20:08:33.369Z,8.47
2019-06-26T20:11:38.565Z,8.23
2019-06-26T20:14:43.768Z,7.73
2019-06-26T20:17:49.013Z,7.50
2019-06-26T20:20:55.553Z,7.67
2019-06-26T20:24:00.790Z,6.97
2019-06-26T20:27:05.993Z,6.93
2019-06-26T20:30:11.730Z,7.00
2019-06-26T20:33:17.118Z,6.97
2019-06-26T20:36:22.416Z,6.10
2019-06-26T20:39:29.958Z,5.70
2019-06-26T20:42:35.125Z,5.60
2019-06-26T20:45:40.396Z,5.40
2019-06-26T20:48:45.591Z,4.70
2019-06-26T20:51:50.868Z,4.90
2019-06-26T20:55:01.397Z,5.07
2019-06-26T20:58:02.920Z,4.63
2019-06-26T21:01:08.193Z,4.20
2019-06-26T21:04:15.109Z,4.63
2019-06-26T21:07:21.995Z,4.17
2019-06-26T21:10:27.169Z,4.60
2019-06-26T21:13:32.327Z,4.50
2019-06-26T21:16:37.480Z,4.73
2019-06-26T21:19:42.737Z,3.90
2019-06-26T21:22:47.959Z,4.30
2019-06-26T21:25:53.231Z,4.10
2019-06-26T21:29:00.868Z,4.57
2019-06-26T21:32:06.288Z,4.30
2019-06-26T21:35:11.750Z,4.33
2019-06-26T21:38:16.948Z,4.50
2019-06-26T21:41:23.270Z,4.43
2019-06-26T21:44:28.815Z,4.83
2019-06-26T21:47:35.143Z,4.30
2019-06-26T21:50:40.408Z,4.33
2019-06-26T21:53:45.653Z,4.57
2019-06-26T21:57:09.444Z,5.17
2019-06-26T22:00:34.575Z,4.93
2019-06-26T22:03:57.639Z,4.27
2019-06-26T22:07:04.454Z,4.83
2019-06-26T22:10:15.614Z,5.30
2019-06-26T22:13:20.864Z,5.27
2019-06-26T22:16:26.205Z,5.17
2019-06-26T22:19:32.424Z,5.30
2019-06-26T22:22:37.632Z,5.50
2019-06-26T22:25:50.778Z,4.67
2019-06-26T22:28:49.829Z,5.57
2019-06-26T22:31:55.105Z,5.60
2019-06-26T22:35:00.434Z,5.47
2019-06-26T22:38:08.076Z,5.20
2019-06-26T22:41:13.288Z,5.00
2019-06-26T22:44:18.454Z,5.60
2019-06-26T22:47:24.503Z,5.87
2019-06-26T22:50:31.010Z,5.97
2019-06-26T22:53:36.409Z,5.87
2019-06-26T22:56:43.782Z,6.50
2019-06-26T22:59:49.027Z,5.53
2019-06-26T23:02:54.354Z,6.00
2019-06-26T23:05:59.905Z,5.30
2019-06-26T23:09:08.166Z,6.13
2019-06-26T23:12:13.457Z,6.23
2019-06-26T23:15:18.915Z,6.50
2019-06-26T23:18:27.880Z,6.23
2019-06-26T23:21:33.255Z,6.00
2019-06-26T23:24:41.799Z,6.73
2019-06-26T23:27:48.247Z,5.80
2019-06-26T23:30:53.420Z,6.30
2019-06-26T23:33:59.304Z,6.20
2019-06-26T23:37:05.507Z,6.13
2019-06-26T23:40:11.154Z,6.70
2019-06-26T23:43:17.785Z,6.60
2019-06-26T23:46:22.996Z,6.33
2019-06-26T23:49:28.256Z,6.97
2019-06-26T23:52:34.950Z,6.30
2019-06-26T23:55:40.182Z,6.30
2019-06-26T23:58:45.507Z,6.40
